Tonopah Airport
KTPH : rendu visible

Aérodrome :











RETROUVEZ-NOUS SUR...

 
LOGIN :

S'inscrire | Disclaimer

   EN    FR    IT 

 









Légende :    VFR   VFR Marginal   IFR   IFR Intensif   IFR Très Intensif
Visi : 
Plafond : 
>= 8 km
>= 3000ft
5 à 8 km
1000 à 3000 ft
1500m à 5 km
500 à 1000 ft
800 à 1500m
200 à 500 ft
< 800m
< 200 ft
Symboles :   Orages  Brouillard  Fortes neiges  Fortes précipitations  Vent > 20 kt






- Altitude de l'aérodrome : 5430 ft


KTPH - Tonopah

DERNIER METAR :
  • 142056Z AUTO 16006KT 10SM CLR 16/M08 A3015 RMK AO2 SLP182 T01561078 58020

METARs EXPIRÉS :
  • 141956Z AUTO 14005KT 10SM CLR 14/M08 A3017 RMK AO2 SLP190 T01441078
  • 141856Z AUTO 00000KT 10SM CLR 13/M09 A3020 RMK AO2 SLP202 T01331089

TAF KTPH
Valide du 14 à 18h jusqu'au 15 à 18h UTC


141730Z 1418/1518 18007KT P6SM BKN150
FM150600 36007KT P6SM SCT150 BKN250
FM151700 VRB06KT P6SM FEW150 BKN250



MET'MAP, la Météo Aéronautique d'un coup d'oeil ! - Copyright ORBIFLY Décembre 2007 - Disclaimer

ORBIFLY MET'MAP TEAM :

Programmation & Développement : Alexandra Zaïnal
Conception & Développement : Baudouin d'Aumeries
Co-Programmation & Développement : Marc-Olivier Méhu
Soutien technique & logistique : Manuel Goepfert

Contact : metmap@orbifly.com




SOURCES & CREDITS :

   NOAA       Earth
Advisory